Saturday, April 30, 2016
18:48 UTC
  |  Log In   |  Register Free
Airport Search:

Big Bear City Airport
(KL35)

Big Bear City Airport Diagram
No Airport Diagram Available

FAA data valid effective Mar 31 2016 - May 26 2016 (unless otherwise noted).

 
 
 
 
 
 
 
 
 
 
 
 
 
 
Current Aviation Weather for KL35

Weather Summary


The most recent METAR observation for L35 was updated at: 04:47 UTC
METAR for KL35 is not available. Closest METAR is for KSBD
KL35  (most recent observation was updatred at 30:18 UTC)
301835Z AUTO 34004KT 2SM DZ OVC006 01/00 A2985 RMK AO2

KSBD  (21.4 nm NE)   (most recent observation was updated at 30:17 UTC)
301748Z 00000KT 10SM BKN028 OVC060 13/10 A2983

KPSP  (31.3 nm NW)   (most recent observation was updated at 30:17 UTC)
301753Z 32018G25KT 10SM SCT110 22/07 A2972 RMK AO2 PKWND 32030/1710 SLP063 T02170067 10217 20156 50006

TAF for KL35 is not available.
KRIV  (30.5 nm NE)   (most recent observation was updatred at 30:18 UTC)
AMD 301815Z 3018/0118 29012KT 9999 VCSH SCT016 BKN045 OVC050 QNH2973INS TEMPO 3022/0102 33015G25KT VCSH OVC015 510009 BECMG 0102/0103 34012KT 9999 NSW BKN030 QNH2980INS BECMG 0105/0106 30009KT 9999 BKN015 OVC030 QNH2982INS BECMG 0108/0109 VRB06KT 9999 SCT020 SCT100 QNH2983INS TX21/3022Z TN10/0113Z


KPSP  (31.3 nm NW)   (most recent observation was updatred at 30:17 UTC)
301737Z 3018/0118 31015G25KT P6SM VCTS SCT080CB FM010400 32013KT P6SM SCT100 FM011000 32007KT P6SM SKC


KNXP  (34.5 nm SW)   (most recent observation was updatred at UTC)
AMD 3016/0115 32020G30KT 6000 VCTS BLDU BKN050CB BKN150 QNH2972INS TEMPO 3019/3023 VRB30G45KT 3200 TSRA SCT030 BKN040CB BKN100 BECMG 3023/0101 32015G25KT 9999 NSW SCT050 BKN120 QNH2975INS FM010330 01012G22KT 9999 SCT120 BKN250 QNH2978INS T19/3023Z T14/0113Z AMD 1630
GlobalAir.com is loading additional information.
 Current Weather at L35
34.0 F° (1.0 C°)

North winds at 0.0 mph
Pressure:
29.84 in
Humidity:
93%
Wind:
North at 0.0 mph
Dew Point:
32.0 F° (0.0 C°)
Visibility:
2.50 mi
L35 NOAA Radar




Find All Airport Services Find A Hotel Find A Rental Car Find A Golf Course Find A Restaurant $100 Hamburger



Airport Weather Forecast for KL35

Translated METAR for KL35 (1835 UTC)
METAR:
KL35 301835Z AUTO 34004KT 2SM DZ OVC006 01/00 A2985 RMK AO2
Conditions at:
KL35 (Big Bear City, CA) observed 1835 UTC 30 April 2016
Temperature:
1°C (33.8°F)
Dewpoint:
0°C (32°F) [RH = 93]
Pressure:
29.85 inches Hg (1010.8 mb)
Winds:
from the NNW (340 degrees) at 4.6 mph (4 knots: 2.1 m/s)
Visibility:
2 mile(s)
Ceiling:
600 feet AGL
Clouds:
Overcast Skies at 600 feet AGL
Remarks:
site is un-manned
site is automated and HAS a precipitation sensor

FBO's on the Field
FBO Company Facility Photos Services Transportation Aviation Fuel Prices: Prices include tax
Catering Weather Repair Courtesy Rental Type 100LL JetA JetA+ MOGAS 8087
 
Big Bear Airport

This FBO has not yet been rated
FS:Epic
Last Updated: Apr-11
Login to update fuel prices
SS:
Contact Big Bear AirportMore FBO Information
 
Add another FBO Facility Photos Catering Weather Repair Courtesy Rental Type 100LL JetA JetA+ MOGAS 8087
Services Transportation Aviation Fuel Prices: Prices include tax


model-print
model-print
model-print
model-print